createdAt,value
2016-04-20T08:28:27.238Z,28.55
2016-04-20T08:29:27.443Z,25.87
2016-04-20T08:30:27.430Z,26.83
2016-04-20T08:31:27.464Z,26.93
2016-04-20T08:32:27.482Z,24.81
2016-04-20T08:33:27.501Z,25.02
2016-04-20T08:34:27.535Z,25.11
2016-04-20T08:35:27.552Z,25.49
2016-04-20T08:36:27.571Z,23.96
2016-04-20T08:37:27.590Z,21.36
2016-04-20T08:38:27.607Z,21.65
2016-04-20T08:39:27.642Z,21.94
2016-04-20T08:40:27.504Z,22.12
2016-04-20T08:41:27.694Z,22.79
2016-04-20T08:42:27.712Z,24.62
2016-04-20T08:43:27.731Z,23.96
2016-04-20T08:44:27.765Z,23.67
2016-04-20T08:45:27.799Z,24.05
2016-04-20T08:46:27.801Z,23.38
2016-04-20T08:47:27.820Z,23.57
2016-04-20T08:48:27.838Z,23.2
2016-04-20T08:49:27.873Z,24.07
2016-04-20T08:50:27.890Z,25.43
2016-04-20T08:51:27.909Z,24.56
2016-04-20T08:52:27.942Z,22.45
2016-04-20T08:53:27.961Z,22.64
2016-04-20T08:54:27.995Z,21.3
2016-04-20T08:55:28.013Z,21.3
2016-04-20T08:56:28.031Z,22.06
2016-04-20T08:57:28.049Z,22.36
2016-04-20T08:58:28.084Z,21.97
2016-04-20T08:59:28.102Z,22.74
2016-04-20T09:00:28.136Z,22.94
2016-04-20T09:01:28.170Z,24.1
2016-04-20T09:02:28.172Z,22.17
2016-04-20T09:03:28.207Z,19.76
2016-04-20T09:04:28.224Z,19.67
2016-04-20T09:05:28.243Z,22.64
2016-04-20T09:06:28.260Z,20.91
2016-04-20T09:07:28.296Z,21.01
2016-04-20T09:08:28.329Z,20.25
2016-04-20T09:09:28.332Z,21.4
2016-04-20T09:10:28.382Z,19.67
2016-04-20T09:11:28.400Z,21.4
2016-04-20T09:12:28.418Z,20.34
2016-04-20T09:13:28.437Z,21.68
2016-04-20T09:14:28.471Z,22.36
2016-04-20T09:15:28.504Z,24.39
2016-04-20T09:16:28.523Z,25.08
2016-04-20T09:17:28.556Z,24.5
2016-04-20T09:18:28.575Z,21.22
2016-04-20T09:19:28.578Z,19.78
2016-04-20T09:20:28.612Z,17.66
2016-04-20T09:21:28.692Z,18.13
2016-04-20T09:22:28.710Z,19.58
2016-04-20T09:23:28.681Z,19.87
2016-04-20T09:24:28.700Z,17.94
2016-04-20T09:25:28.733Z,19.1
2016-04-20T09:26:28.768Z,20.83
2016-04-20T09:27:28.770Z,21.31
2016-04-20T09:28:28.804Z,20.84
2016-04-20T09:29:28.822Z,21.81
2016-04-20T09:30:28.919Z,19.2
2016-04-20T09:31:28.890Z,20.75
2016-04-20T09:32:28.909Z,23.16
2016-04-20T09:33:28.926Z,19.12
2016-04-20T09:34:28.945Z,16.7
2016-04-20T09:35:28.979Z,18.63
2016-04-20T09:36:29.012Z,18.82
2016-04-20T09:37:29.015Z,18.82
2016-04-20T09:38:29.049Z,17.47
2016-04-20T09:39:29.099Z,15.55
2016-04-20T09:40:29.101Z,16.31
2016-04-20T09:41:29.120Z,17.87
2016-04-20T09:42:29.154Z,17.29
2016-04-20T09:43:29.172Z,16.13
2016-04-20T09:44:29.191Z,15.45
2016-04-20T09:45:29.224Z,16.99
2016-04-20T09:46:29.242Z,17.09
2016-04-20T09:47:29.277Z,16.31
2016-04-20T09:48:29.311Z,18.06
2016-04-20T09:49:29.330Z,18.64
2016-04-20T09:50:29.347Z,18.74
2016-04-20T09:51:29.381Z,18.06
2016-04-20T09:52:29.415Z,17.39
2016-04-20T09:53:29.433Z,16.03
2016-04-20T09:54:29.452Z,18.06
2016-04-20T09:55:29.486Z,18.84
2016-04-20T09:56:29.504Z,18.65
2016-04-20T09:57:29.522Z,19.04
2016-04-20T09:58:29.557Z,20.2
2016-04-20T09:59:29.590Z,19.33
2016-04-20T10:00:29.624Z,20.01
2016-04-20T10:01:29.642Z,18.85
2016-04-20T10:02:29.676Z,20.29
2016-04-20T10:03:29.679Z,20.01
2016-04-20T10:04:29.712Z,20.21
2016-04-20T10:05:29.731Z,16.53
2016-04-20T10:06:29.765Z,17.4
2016-04-20T10:07:29.798Z,16.06
2016-04-20T10:08:29.817Z,17.41
2016-04-20T10:09:29.851Z,15.58
2016-04-20T10:10:29.886Z,15.38
2016-04-20T10:11:29.920Z,15.67
2016-04-20T10:12:29.922Z,18.38
2016-04-20T10:13:29.956Z,16.35
2016-04-20T10:14:29.990Z,17.12
2016-04-20T10:15:30.009Z,14.7
2016-04-20T10:16:30.027Z,14.41
2016-04-20T10:17:30.061Z,16.16
2016-04-20T10:18:30.079Z,16.46
2016-04-20T10:19:30.113Z,14.32
2016-04-20T10:20:30.147Z,15.48
2016-04-20T10:21:30.166Z,15.68
2016-04-20T10:22:30.183Z,16.36
2016-04-20T10:23:30.217Z,16.84
2016-04-20T10:24:30.236Z,16.55
2016-04-20T10:25:30.269Z,17.32
2016-04-20T10:26:30.288Z,17.22
2016-04-20T10:27:30.337Z,16.74
2016-04-20T10:28:30.355Z,15.29
2016-04-20T10:29:30.374Z,15.48
2016-04-20T10:30:30.408Z,14.81
2016-04-20T10:31:30.457Z,14.61
2016-04-20T10:32:30.476Z,14.81
2016-04-20T10:33:30.494Z,15.49
2016-04-20T10:34:30.513Z,15.88
2016-04-20T10:35:30.579Z,13.46
2016-04-20T10:36:30.565Z,14.43
2016-04-20T10:37:30.583Z,15.29
2016-04-20T10:38:30.617Z,15.19
2016-04-20T10:39:30.651Z,13.45
2016-04-20T10:40:30.669Z,17.13
2016-04-20T10:41:30.704Z,15.48
2016-04-20T10:42:30.737Z,15.78
2016-04-20T10:43:30.771Z,18.59
2016-04-20T10:44:30.789Z,19.26
2016-04-20T10:45:30.823Z,17.04
2016-04-20T10:46:30.842Z,16.27
2016-04-20T10:47:30.876Z,16.74
2016-04-20T10:48:30.894Z,14.42
2016-04-20T10:49:30.928Z,14.71
2016-04-20T10:50:30.946Z,17.52
2016-04-20T10:51:30.964Z,15.59
2016-04-20T10:52:30.999Z,17.61
2016-04-20T10:53:31.032Z,14.9
2016-04-20T10:54:31.066Z,13.75
2016-04-20T10:55:31.085Z,17.9
2016-04-20T10:56:31.103Z,16.84
2016-04-20T10:57:31.137Z,14.23
2016-04-20T10:58:31.155Z,13.65
2016-04-20T10:59:31.188Z,13.55
2016-04-20T11:00:31.207Z,15.58
2016-04-20T11:01:31.241Z,14.12
2016-04-20T11:02:31.260Z,15.67
2016-04-20T11:03:31.294Z,17.9
2016-04-20T11:04:31.327Z,15.48
2016-04-20T11:05:31.346Z,16.56
2016-04-20T11:06:31.379Z,15.88
2016-04-20T11:07:31.414Z,15.39
2016-04-20T11:08:31.432Z,13.75
2016-04-20T11:09:31.451Z,15.59
2016-04-20T11:10:31.484Z,15.59
2016-04-20T11:11:31.518Z,15.69
2016-04-20T11:12:31.537Z,15.39
2016-04-20T11:13:31.556Z,15.3
2016-04-20T11:14:31.589Z,16.17
2016-04-20T11:15:31.623Z,17.44
2016-04-20T11:16:31.656Z,18.31
2016-04-20T11:17:31.675Z,18.99
2016-04-20T11:18:31.694Z,16.77
2016-04-20T11:19:31.728Z,15.51
2016-04-20T11:20:31.762Z,14.43
2016-04-20T11:21:31.780Z,14.43
2016-04-20T11:22:32.142Z,15.41
2016-04-20T11:23:32.175Z,17.54
2016-04-20T11:24:31.881Z,15.8
2016-04-20T11:25:31.884Z,14.73
2016-04-20T11:26:31.918Z,14.25
2016-04-20T11:27:31.952Z,15.5
2016-04-20T11:28:31.970Z,15.41
2016-04-20T11:29:32.004Z,15.59
2016-04-20T11:30:32.022Z,18.13
2016-04-20T11:31:32.057Z,15.41
2016-04-20T11:32:32.075Z,15.8
2016-04-20T11:33:32.110Z,18.12
2016-04-20T11:34:32.127Z,15.99
2016-04-20T11:35:32.161Z,17.24
2016-04-20T11:36:32.179Z,17.34
2016-04-20T11:37:32.213Z,13.76
2016-04-20T11:38:32.248Z,15.5
2016-04-20T11:39:32.282Z,13.18
2016-04-20T11:40:32.299Z,14.04
2016-04-20T11:41:32.365Z,13.65
2016-04-20T11:42:32.351Z,14.72
2016-04-20T11:43:32.386Z,16.07
2016-04-20T11:44:32.419Z,14.43
2016-04-20T11:45:32.423Z,14.34
2016-04-20T11:46:32.472Z,14.43
2016-04-20T11:47:32.474Z,12.88
2016-04-20T11:48:32.509Z,14.53
2016-04-20T11:49:32.542Z,15.69
2016-04-20T11:50:32.686Z,15.78
2016-04-20T11:51:32.595Z,14.53
2016-04-20T11:52:32.628Z,16.86
2016-04-20T11:53:32.647Z,17.54
2016-04-20T11:54:32.681Z,16.08
2016-04-20T11:55:32.699Z,15.69
2016-04-20T11:56:32.717Z,14.73
2016-04-20T11:57:32.782Z,17.34
2016-04-20T11:58:32.785Z,15.59
2016-04-20T11:59:32.805Z,18.02
2016-04-20T12:00:32.838Z,14.14
2016-04-20T12:01:32.856Z,11.52
2016-04-20T12:02:32.905Z,13.65
2016-04-20T12:03:32.923Z,16.64
2016-04-20T12:04:32.942Z,14.72
2016-04-20T12:05:32.992Z,12.29
2016-04-20T12:06:32.994Z,12.29
2016-04-20T12:07:33.029Z,13.35
2016-04-20T12:08:33.046Z,14.61
2016-04-20T12:09:33.081Z,14.32
2016-04-20T12:10:33.114Z,12.39
2016-04-20T12:11:33.132Z,15.58
2016-04-20T12:12:33.152Z,18.49
2016-04-20T12:13:33.185Z,15.69
2016-04-20T12:14:33.220Z,15.88
2016-04-20T12:15:33.237Z,13.36
2016-04-20T12:16:33.270Z,14.13
2016-04-20T12:17:33.290Z,14.61
2016-04-20T12:18:33.340Z,14.9
2016-04-20T12:19:33.342Z,14.51
2016-04-20T12:20:33.392Z,15.39
2016-04-20T12:21:33.409Z,13.45
2016-04-20T12:22:33.412Z,13.26
2016-04-20T12:23:33.447Z,13.07
2016-04-20T12:24:33.480Z,15.38
2016-04-20T12:25:33.499Z,13.54
2016-04-20T12:26:33.563Z,14.22
2016-04-20T12:27:34.035Z,14.13
2016-04-20T12:28:33.585Z,13.16
2016-04-20T12:29:33.603Z,12.19
2016-04-20T12:30:33.637Z,12.87
2016-04-20T12:31:33.672Z,12.48
2016-04-20T12:32:33.688Z,14.31
2016-04-20T12:33:33.707Z,14.98
2016-04-20T12:34:33.773Z,13.54
2016-04-20T12:35:33.760Z,17.51
2016-04-20T12:36:33.794Z,18.85
2016-04-20T12:37:33.828Z,15.56
2016-04-20T12:38:33.846Z,15.66
2016-04-20T12:39:33.880Z,16.24
2016-04-20T12:40:33.899Z,16.93
2016-04-20T12:41:33.918Z,15.48
2016-04-20T12:42:33.951Z,16.46
2016-04-20T12:43:33.968Z,18.77
2016-04-20T12:44:34.003Z,19.17
2016-04-20T12:45:34.021Z,19.07
2016-04-20T12:46:34.056Z,15.69
2016-04-20T12:47:34.074Z,15.69
2016-04-20T12:48:34.107Z,16.18
2016-04-20T12:49:34.142Z,15.99
2016-04-20T12:50:34.159Z,15.21
2016-04-20T12:51:34.178Z,13.66
2016-04-20T12:52:34.212Z,14.63
2016-04-20T12:53:34.245Z,15.98
2016-04-20T12:54:34.264Z,16.86
2016-04-20T12:55:34.283Z,17.14
2016-04-20T12:56:34.317Z,14.14
2016-04-20T12:57:34.350Z,14.64
2016-04-20T12:58:34.384Z,11.91
2016-04-20T12:59:34.403Z,12.98
2016-04-20T13:00:34.452Z,14.04
2016-04-20T13:01:34.438Z,12.49
2016-04-20T13:02:34.473Z,11.81
2016-04-20T13:03:34.508Z,11.62
2016-04-20T13:04:34.525Z,12.59
2016-04-20T13:05:34.575Z,12.58
2016-04-20T13:06:34.593Z,14.42
2016-04-20T13:07:34.612Z,13.36
2016-04-20T13:08:34.630Z,12
2016-04-20T13:09:34.680Z,13.55
2016-04-20T13:10:34.682Z,14.81
2016-04-20T13:11:34.715Z,15.49
2016-04-20T13:12:34.734Z,12.01
2016-04-20T13:13:34.784Z,13.56
2016-04-20T13:14:34.787Z,14.53
2016-04-20T13:15:34.821Z,13.94
2016-04-20T13:16:34.854Z,16.56
2016-04-20T13:17:34.889Z,17.43
2016-04-20T13:18:34.907Z,14.33
2016-04-20T13:19:34.940Z,15.59
2016-04-20T13:20:34.959Z,15.3
2016-04-20T13:21:34.993Z,14.81
2016-04-20T13:22:35.011Z,15.69
2016-04-20T13:23:35.030Z,16.75
2016-04-20T13:24:35.063Z,17.04
2016-04-20T13:25:35.081Z,16.27
2016-04-20T13:26:35.116Z,16.66
2016-04-20T13:27:35.150Z,15.39
2016-04-20T13:28:35.169Z,15.69
2016-04-20T13:29:35.217Z,14.72
2016-04-20T13:30:35.236Z,15.39
2016-04-20T13:31:35.254Z,15.78
2016-04-20T13:32:35.273Z,16.36
2016-04-20T13:33:35.307Z,18.19
2016-04-20T13:34:35.325Z,14.81
2016-04-20T13:35:35.358Z,15.11
2016-04-20T13:36:34.627Z,13.46
2016-04-20T13:37:35.442Z,13.36
2016-04-20T13:38:35.461Z,13.17
2016-04-20T13:39:35.463Z,12.78
2016-04-20T13:40:35.482Z,12.97
2016-04-20T13:41:35.516Z,15.29
2016-04-20T13:42:35.534Z,15.29
2016-04-20T13:43:35.567Z,14.43
2016-04-20T13:44:35.587Z,13.75
2016-04-20T13:45:35.620Z,12.01
2016-04-20T13:46:35.654Z,11.52
2016-04-20T13:47:35.687Z,11.9
2016-04-20T13:48:35.707Z,11.41
2016-04-20T13:49:35.725Z,13.06
2016-04-20T13:50:35.759Z,13.06
2016-04-20T13:51:35.776Z,13.65
2016-04-20T13:52:35.812Z,12.48
2016-04-20T13:53:35.845Z,13.15
2016-04-20T13:54:35.847Z,13.06
2016-04-20T13:55:35.881Z,16.16
2016-04-20T13:56:35.915Z,13.64
2016-04-20T13:57:35.933Z,13.25
2016-04-20T13:58:35.968Z,12.87
2016-04-20T13:59:35.986Z,14.22
2016-04-20T14:00:36.005Z,15.09
2016-04-20T14:01:36.039Z,14.12
2016-04-20T14:02:36.275Z,13.06
2016-04-20T14:03:36.091Z,13.15
2016-04-20T14:04:36.124Z,14.12
2016-04-20T14:05:36.143Z,14.99
2016-04-20T14:06:36.160Z,12.77
2016-04-20T14:07:36.195Z,12.29
2016-04-20T14:08:36.213Z,13.25
2016-04-20T14:09:36.247Z,12.67
2016-04-20T14:10:36.282Z,12.57
2016-04-20T14:11:36.315Z,13.15
2016-04-20T14:12:36.333Z,12.95
2016-04-20T14:13:36.352Z,14.78
2016-04-20T14:14:36.371Z,14.4
2016-04-20T14:15:36.404Z,17.4
2016-04-20T14:16:36.437Z,18.18
2016-04-20T14:17:36.471Z,13.54
2016-04-20T14:18:36.506Z,14.31
2016-04-20T14:19:36.509Z,12.86
2016-04-20T14:20:36.527Z,13.14
2016-04-20T14:21:36.576Z,13.34
2016-04-20T14:22:36.596Z,13.62
2016-04-20T14:23:36.613Z,15.17
2016-04-20T14:24:36.632Z,14.6
2016-04-20T14:25:36.713Z,14.79
2016-04-20T14:26:36.685Z,13.82
2016-04-20T14:27:36.718Z,13.44
2016-04-20T14:28:36.752Z,14.5
2016-04-20T14:29:36.771Z,14.02
2016-04-20T14:30:36.790Z,13.92
2016-04-20T14:31:36.823Z,15.66
2016-04-20T14:32:36.841Z,19.43
2016-04-20T14:33:36.875Z,13.05
2016-04-20T14:34:36.893Z,13.24
2016-04-20T14:35:36.912Z,14.31
2016-04-20T14:36:36.930Z,16.05
2016-04-20T14:37:36.964Z,13.73
2016-04-20T14:38:36.998Z,14.59
2016-04-20T14:39:37.017Z,17.68
2016-04-20T14:40:37.050Z,15.56
2016-04-20T14:41:37.069Z,13.72
2016-04-20T14:42:37.087Z,15.46
2016-04-20T14:43:37.121Z,19.91
2016-04-20T14:44:37.139Z,16.14
2016-04-20T14:45:37.173Z,15.27
2016-04-20T14:46:37.208Z,15.56
2016-04-20T14:47:37.225Z,16.43
2016-04-20T14:48:37.260Z,15.66
2016-04-20T14:49:37.278Z,14.01
2016-04-20T14:50:37.296Z,13.33
2016-04-20T14:51:37.330Z,13.33
2016-04-20T14:52:37.348Z,14.29
2016-04-20T14:53:37.382Z,13.81
2016-04-20T14:54:37.401Z,13.71
2016-04-20T14:55:37.419Z,15.25
2016-04-20T14:56:37.437Z,17.47
2016-04-20T14:57:37.502Z,16.99
2016-04-20T14:58:37.505Z,16.22
2016-04-20T14:59:37.524Z,15.73
2016-04-20T15:00:37.557Z,14.77
2016-04-20T15:01:37.576Z,14.01
2016-04-20T15:02:37.609Z,13.91
2016-04-20T15:03:37.628Z,14.29
2016-04-20T15:04:37.661Z,13.61
2016-04-20T15:05:37.680Z,14.39
2016-04-20T15:06:37.698Z,15.25
2016-04-20T15:08:37.767Z,18.55
2016-04-20T15:09:37.785Z,14.39
2016-04-20T15:10:37.803Z,16.03
2016-04-20T15:11:37.822Z,15.55
2016-04-20T15:12:37.855Z,13.43
2016-04-20T15:13:37.873Z,15.16
2016-04-20T15:14:37.891Z,17.38
2016-04-20T15:15:37.925Z,17.19
2016-04-20T15:16:37.960Z,16.12
2016-04-20T15:17:37.977Z,15.64
2016-04-20T15:18:37.996Z,14.1
2016-04-20T15:19:38.030Z,15.35
2016-04-20T15:20:38.080Z,17.38
2016-04-20T15:21:38.082Z,16.7
2016-04-20T15:22:38.101Z,14.48
2016-04-20T15:23:38.135Z,14.48
2016-04-20T15:24:38.152Z,13.51
2016-04-20T15:25:38.171Z,15.55
2016-04-20T15:26:38.205Z,14.67
2016-04-20T15:27:38.223Z,14.86
2016-04-20T15:28:38.258Z,14.57
2016-04-20T15:29:38.260Z,15.15
2016-04-20T15:30:38.294Z,15.34
2016-04-20T15:31:38.312Z,16.31
2016-04-20T15:32:38.440Z,15.25
2016-04-20T15:33:38.365Z,15.25
2016-04-20T15:34:38.398Z,20.26
2016-04-20T15:35:38.417Z,21.81
2016-04-20T15:36:38.439Z,23.93
2016-04-20T15:37:38.474Z,20.08
2016-04-20T15:38:38.492Z,17.19
2016-04-20T15:39:38.510Z,15.25
2016-04-20T15:40:38.545Z,14.28
2016-04-20T15:41:38.563Z,15.83
2016-04-20T15:42:38.597Z,19.01
2016-04-20T15:43:38.616Z,15.55
2016-04-20T15:44:38.665Z,15.05
2016-04-20T15:45:38.683Z,15.34
2016-04-20T15:46:38.702Z,14.29
2016-04-20T15:47:38.705Z,15.55
2016-04-20T15:48:38.583Z,18.15
2016-04-20T15:49:38.600Z,15.45
2016-04-20T15:50:38.775Z,13.7
2016-04-20T15:51:38.715Z,21.71
2016-04-20T15:52:38.843Z,19.68
2016-04-20T15:53:38.861Z,25.67
2016-04-20T15:54:38.895Z,16.69
2016-04-20T15:55:38.898Z,16.21
2016-04-20T15:56:38.931Z,14.18
2016-04-20T15:57:38.965Z,13.89
2016-04-20T15:58:39.021Z,17.75
2016-04-20T15:59:39.096Z,17.46
2016-04-20T16:00:39.157Z,16.11
2016-04-20T16:01:39.216Z,15.53
2016-04-20T16:02:39.338Z,14.67
2016-04-20T16:03:39.317Z,13.9
2016-04-20T16:04:39.220Z,14.38
2016-04-20T16:06:54.738Z,15.05
2016-04-20T16:07:54.769Z,17.36
2016-04-20T16:08:54.808Z,23.63
2016-04-20T16:09:54.864Z,22.09
2016-04-20T16:10:54.887Z,17.37
2016-04-20T16:11:54.896Z,16.59
2016-04-20T16:12:55.120Z,14.28
2016-04-20T16:13:54.938Z,14.95
2016-04-20T16:14:54.974Z,14.47
2016-04-20T16:15:54.995Z,13.6
2016-04-20T16:16:55.029Z,13.69
2016-04-20T16:17:55.050Z,14.56
2016-04-20T16:18:55.069Z,14.56
2016-04-20T16:19:55.104Z,16
2016-04-20T16:20:55.123Z,16.49
2016-04-20T16:21:55.142Z,17.16
2016-04-20T16:22:55.161Z,15.72
2016-04-20T16:23:55.195Z,16
2016-04-20T16:24:55.245Z,19.28
2016-04-20T16:25:55.263Z,17.35
2016-04-20T16:26:55.266Z,15.7
2016-04-20T16:27:55.300Z,15.52
2016-04-20T16:28:55.319Z,15.9
2016-04-20T16:29:55.338Z,15.8
2016-04-20T16:30:55.372Z,15.7
2016-04-20T16:31:55.421Z,15.42
2016-04-20T16:32:55.455Z,15.7
2016-04-20T16:33:55.426Z,15.6
2016-04-20T16:34:55.507Z,17.14
2016-04-20T16:35:55.479Z,17.33
2016-04-20T16:36:55.653Z,17.71
2016-04-20T16:37:55.640Z,16.75
2016-04-20T16:38:55.549Z,18.1
2016-04-20T16:39:55.583Z,17.33
2016-04-20T16:40:55.632Z,17.03
2016-04-20T16:41:55.620Z,16.46
2016-04-20T16:42:55.638Z,17.13
2016-04-20T16:43:55.656Z,18.66
2016-04-20T16:44:55.675Z,18.76
2016-04-20T16:45:55.709Z,24.15
2016-04-20T16:46:55.726Z,22.03
2016-04-20T16:47:55.761Z,18.95
2016-04-20T16:48:55.779Z,18.66
2016-04-20T16:49:55.798Z,18.66
2016-04-20T16:50:55.832Z,21.64
2016-04-20T16:51:55.834Z,25.2
2016-04-20T16:52:55.868Z,21.35
2016-04-20T16:53:55.886Z,22.78
2016-04-20T16:54:55.905Z,26.05
2016-04-20T16:55:55.923Z,22.59
2016-04-20T16:56:55.957Z,19.23
2016-04-20T16:57:55.975Z,18.55
2016-04-20T16:58:55.994Z,18.26
2016-04-20T16:59:56.028Z,18.16
2016-04-20T17:00:56.030Z,19.7
2016-04-20T17:01:56.064Z,20.56
2016-04-20T17:02:56.082Z,20.08
2016-04-20T17:03:56.116Z,21.23
2016-04-20T17:04:56.119Z,24.69
2016-04-20T17:05:56.138Z,19.98
2016-04-20T17:06:56.155Z,19.79
2016-04-20T17:07:56.174Z,20.36
2016-04-20T17:08:56.208Z,20.74
2016-04-20T17:09:56.070Z,21.32
2016-04-20T17:10:56.260Z,21.51
2016-04-20T17:11:56.279Z,22.08
2016-04-20T17:12:56.297Z,21.89
2016-04-20T17:13:56.315Z,20.84
2016-04-20T17:14:56.334Z,20.84
2016-04-20T17:15:56.352Z,20.74
2016-04-20T17:16:56.371Z,20.06
2016-04-20T17:17:56.404Z,21.78
2016-04-20T17:18:56.422Z,23.22
2016-04-20T17:19:56.440Z,22.75
2016-04-20T17:20:56.459Z,23.52
2016-04-20T17:21:56.478Z,23.22
2016-04-20T17:22:56.496Z,23.13
2016-04-20T17:23:56.530Z,23.22
2016-04-20T17:24:56.533Z,23.03
2016-04-20T17:25:56.567Z,23.9
2016-04-20T17:26:56.584Z,24.46
2016-04-20T17:27:56.602Z,25.23
2016-04-20T17:28:56.636Z,23.98
2016-04-20T17:29:56.640Z,23.88
2016-04-20T17:30:56.658Z,23.69
2016-04-20T17:31:56.691Z,22.45
2016-04-20T17:32:56.711Z,22.35
2016-04-20T17:33:56.728Z,22.74
2016-04-20T17:34:56.747Z,24.65
2016-04-20T17:35:56.766Z,24.46
2016-04-20T17:36:56.799Z,23.5
2016-04-20T17:37:56.818Z,24.56
2016-04-20T17:38:56.835Z,22.53
2016-04-20T17:39:56.854Z,23.3
2016-04-20T17:40:56.857Z,23.01
2016-04-20T17:41:56.875Z,22.53
2016-04-20T17:42:56.894Z,23.88
2016-04-20T17:43:56.912Z,23.97
2016-04-20T17:44:56.946Z,23.78
2016-04-20T17:45:56.949Z,23.11
2016-04-20T17:46:56.998Z,24.26
2016-04-20T17:47:57.001Z,23.68
2016-04-20T17:48:57.018Z,23.77
2016-04-20T17:49:57.038Z,25.01
2016-04-20T17:50:57.056Z,25.87
2016-04-20T17:51:57.152Z,25.2
2016-04-20T17:52:57.092Z,25.01
2016-04-20T17:53:59.835Z,25.01
2016-04-20T17:54:57.151Z,25.87
2016-04-20T17:55:57.168Z,28.17
2016-04-20T17:56:57.218Z,28.75
2016-04-20T17:57:57.190Z,28.08
2016-04-20T17:58:57.208Z,27.03
2016-04-20T17:59:57.242Z,24.9
2016-04-20T18:00:57.244Z,25.29
2016-04-20T18:01:57.278Z,26.06
2016-04-20T18:02:57.297Z,25.38
2016-04-20T18:03:57.346Z,25.29
2016-04-20T18:04:57.350Z,25.96
2016-04-20T18:05:57.352Z,27.3
2016-04-20T18:06:57.368Z,26.25
2016-04-20T18:07:57.386Z,26.82
2016-04-20T18:08:56.656Z,26.25
2016-04-20T18:09:57.423Z,25.96
2016-04-20T18:10:57.441Z,25.48
2016-04-20T18:11:57.492Z,25.86
2016-04-20T18:12:57.478Z,26.82
2016-04-20T18:13:57.496Z,26.25
2016-04-20T18:14:57.639Z,27.19
2016-04-20T18:15:57.564Z,27.95
2016-04-20T18:16:57.567Z,27.67
2016-04-20T18:17:57.574Z,26.33
2016-04-20T18:18:57.592Z,26.81
2016-04-20T18:19:57.609Z,27
2016-04-20T18:20:57.645Z,27.76
2016-04-20T18:21:57.667Z,28.91
2016-04-20T18:22:57.670Z,29.01
2016-04-20T18:23:57.689Z,28.44
2016-04-20T18:24:57.706Z,28.24
2016-04-20T18:25:57.724Z,28.05
2016-04-20T18:26:57.634Z,27.09
2016-04-20T18:27:57.761Z,27.67
2016-04-20T18:28:57.780Z,27.48
2016-04-20T18:29:57.642Z,28.63
2016-04-20T18:30:57.816Z,28.7
2016-04-20T18:31:57.835Z,28.9
2016-04-20T18:32:57.853Z,28.13
2016-04-20T18:33:57.121Z,28.13
2016-04-20T18:34:57.890Z,27.56
2016-04-20T18:35:57.768Z,27.47
2016-04-20T18:36:57.958Z,27.84
2016-04-20T18:37:57.944Z,28.7
2016-04-20T18:38:57.963Z,30.05
2016-04-20T18:39:57.982Z,29.76
2016-04-20T18:40:58.016Z,29.38
2016-04-20T18:41:58.034Z,30.72
2016-04-20T18:42:58.037Z,30.72
2016-04-20T18:43:58.054Z,30.81
2016-04-20T18:44:58.073Z,29.95
2016-04-20T18:45:58.090Z,30.72
2016-04-20T18:46:57.360Z,29.95
2016-04-20T18:47:58.143Z,29.74
2016-04-20T18:48:58.178Z,28.98
2016-04-20T18:49:58.164Z,30.13
2016-04-20T18:50:58.183Z,30.8
2016-04-20T18:51:58.060Z,30.9
2016-04-20T18:52:58.235Z,30.7
2016-04-20T18:53:58.237Z,30.7
2016-04-20T18:54:58.256Z,29.46
2016-04-20T18:55:58.337Z,29.94
2016-04-20T18:56:58.308Z,31.18
2016-04-20T18:57:58.311Z,31.09
2016-04-20T18:58:58.330Z,30.99
2016-04-20T18:59:58.191Z,31.18
2016-04-20T19:00:58.367Z,32.04
2016-04-20T19:01:58.400Z,31.18
2016-04-20T19:02:58.402Z,30.22
2016-04-20T19:03:58.421Z,31.18
2016-04-20T19:04:58.439Z,31.95
2016-04-20T19:05:58.458Z,31.76
2016-04-20T19:06:58.492Z,32.89
2016-04-20T19:07:58.493Z,32.89
2016-04-20T19:08:58.496Z,33.17
2016-04-20T19:09:58.515Z,31.64
2016-04-20T19:10:58.549Z,31.93
2016-04-20T19:11:58.551Z,32.12
2016-04-20T19:12:58.571Z,32.12
2016-04-20T19:13:58.588Z,32.03
2016-04-20T19:14:58.607Z,31.74
2016-04-20T19:15:58.626Z,32.41
2016-04-20T19:16:58.674Z,32.31
2016-04-20T19:17:58.661Z,32.31
2016-04-20T19:18:58.711Z,32.31
2016-04-20T19:19:59.011Z,32.03
2016-04-20T19:20:58.717Z,33.07
2016-04-20T19:21:58.735Z,32.41
2016-04-20T19:22:58.753Z,31.93
2016-04-20T19:23:58.772Z,32.5
2016-04-20T19:24:58.789Z,32.98
2016-04-20T19:25:58.792Z,33.36
2016-04-20T19:26:58.826Z,32.01
2016-04-20T19:27:58.845Z,32.2
2016-04-20T19:28:58.847Z,33.64
2016-04-20T19:29:58.866Z,34.11
2016-04-20T19:30:58.884Z,35.26
2016-04-20T19:31:58.902Z,33.64
2016-04-20T19:32:58.922Z,32.1
2016-04-20T19:33:58.939Z,32.87
2016-04-20T19:34:58.957Z,34.4
2016-04-20T19:35:58.975Z,34.4
2016-04-20T19:36:58.994Z,33.83
2016-04-20T19:37:59.012Z,33.54
2016-04-20T19:38:59.031Z,33.83
2016-04-20T19:39:59.033Z,33.64
2016-04-20T19:40:59.068Z,33.62
2016-04-20T19:41:59.086Z,34.19
2016-04-20T19:42:59.088Z,34.49
2016-04-20T19:43:59.107Z,33.91
2016-04-20T19:44:59.124Z,33.92
2016-04-20T19:45:59.143Z,35.26
2016-04-20T19:46:59.162Z,35.14
2016-04-20T19:47:59.180Z,34.11
2016-04-20T19:48:59.198Z,34.69
2016-04-20T19:49:59.201Z,34.57
2016-04-20T19:50:59.235Z,33.33
2016-04-20T19:51:59.253Z,33.33
2016-04-20T19:52:59.256Z,33.52
2016-04-20T19:53:59.273Z,33.91
2016-04-20T19:54:59.292Z,34.38
2016-04-20T19:55:59.358Z,34.95
2016-04-20T19:56:59.329Z,34
2016-04-20T19:57:59.347Z,34.28
2016-04-20T19:58:59.366Z,34.86
2016-04-20T19:59:59.384Z,36.39
2016-04-20T20:00:59.403Z,35.62
2016-04-20T20:01:59.405Z,34.86
2016-04-20T20:02:59.439Z,34.95
2016-04-20T20:03:59.441Z,36.58
2016-04-20T20:04:59.461Z,36.29
2016-04-20T20:05:59.478Z,36.94
2016-04-20T20:06:59.513Z,36.08
2016-04-20T20:07:59.499Z,37.15
2016-04-20T20:08:59.533Z,37.04
2016-04-20T20:09:59.551Z,35.99
2016-04-20T20:10:59.569Z,36.75
2016-04-20T20:11:59.573Z,36.46
2016-04-20T20:12:59.590Z,36.08
2016-04-20T20:13:59.609Z,35.99
2016-04-20T20:14:59.627Z,36.66
2016-04-20T20:15:59.646Z,36.75
2016-04-20T20:16:59.649Z,35.7
2016-04-20T20:17:59.698Z,37.04
2016-04-20T20:18:59.701Z,36.85
2016-04-20T20:19:59.704Z,36.75
2016-04-20T20:20:59.737Z,36.56
2016-04-20T20:21:59.750Z,36.85
2016-04-20T20:22:59.683Z,37.9
2016-04-20T20:23:59.779Z,38.28
2016-04-20T20:24:59.797Z,36.46
2016-04-20T20:25:59.800Z,35.99
2016-04-20T20:26:59.818Z,36.66
2016-04-20T20:27:59.837Z,37.61
2016-04-20T20:28:59.855Z,37.13
2016-04-20T20:29:59.107Z,36.46
2016-04-20T20:30:59.892Z,37.13
2016-04-20T20:31:59.910Z,37.8
2016-04-20T20:32:59.913Z,37.21
2016-04-20T20:33:59.946Z,37.02
2016-04-20T20:34:59.949Z,36.07
2016-04-20T20:35:59.968Z,36.44
2016-04-20T20:36:59.985Z,36.44
2016-04-20T20:38:00.005Z,36.54
2016-04-20T20:39:00.694Z,35.97
2016-04-20T20:40:00.056Z,36.54
2016-04-20T20:41:00.043Z,37.12
2016-04-20T20:42:00.062Z,37.88
2016-04-20T20:43:00.079Z,38.64
2016-04-20T20:44:00.098Z,38.26
2016-04-20T20:45:00.117Z,39.78
2016-04-20T20:46:00.134Z,38.45
2016-04-20T20:47:00.138Z,38.73
2016-04-20T20:48:00.156Z,37.78
2016-04-20T20:49:00.173Z,37.02
2016-04-20T20:50:00.193Z,37.12
2016-04-20T20:51:00.211Z,37.97
2016-04-20T20:52:00.213Z,37.97
2016-04-20T20:53:00.231Z,37.97
2016-04-20T20:54:00.251Z,37.21
2016-04-20T20:55:00.284Z,38.54
2016-04-20T20:56:00.287Z,39.69
2016-04-20T20:57:00.305Z,39.69
2016-04-20T20:58:00.308Z,39.88
2016-04-20T20:59:00.325Z,39.59
2016-04-20T21:00:02.876Z,40.26
2016-04-20T21:01:00.363Z,39.69
2016-04-20T21:02:00.398Z,39.4
2016-04-20T21:03:00.400Z,39.39
2016-04-20T21:04:00.419Z,39.86
2016-04-20T21:05:00.421Z,40.44
2016-04-20T21:06:00.440Z,40.15
2016-04-20T21:07:00.489Z,41.1
2016-04-20T21:08:00.476Z,40.72
2016-04-20T21:09:00.510Z,41.1
2016-04-20T21:10:00.497Z,41.1
2016-04-20T21:11:00.517Z,41.2
2016-04-20T21:12:00.533Z,41.29
2016-04-20T21:13:00.552Z,41.1
2016-04-20T21:14:00.570Z,41.48
2016-04-20T21:15:00.589Z,42.15
2016-04-20T21:16:00.592Z,42.34
2016-04-20T21:17:00.610Z,43.49
2016-04-20T21:18:00.644Z,41.86
2016-04-20T21:19:00.647Z,41.96
2016-04-20T21:20:00.665Z,41.96
2016-04-20T21:21:00.683Z,42.44
2016-04-20T21:22:00.716Z,42.63
2016-04-20T21:23:00.704Z,42.82
2016-04-20T21:24:00.722Z,41.17
2016-04-20T21:25:00.725Z,42.15
2016-04-20T21:26:00.743Z,42.32